createdAt,value
2022-10-27T00:01:08.307Z,91.76
2022-10-27T00:03:37.701Z,91.76
2022-10-27T00:06:10.008Z,91.80
2022-10-27T00:08:38.393Z,92.17
2022-10-27T00:11:07.987Z,92.22
2022-10-27T00:13:36.687Z,92.11
2022-10-27T00:16:07.033Z,91.80
2022-10-27T00:18:35.509Z,91.46
2022-10-27T00:21:07.699Z,91.29
2022-10-27T00:23:36.414Z,91.45
2022-10-27T00:26:05.506Z,91.75
2022-10-27T00:28:34.018Z,91.83
2022-10-27T00:31:03.404Z,92.14
2022-10-27T00:33:31.660Z,92.21
2022-10-27T00:36:06.384Z,92.23
2022-10-27T00:38:35.018Z,92.36
2022-10-27T00:41:05.561Z,92.32
2022-10-27T00:43:35.220Z,92.34
2022-10-27T00:46:08.758Z,92.41
2022-10-27T00:48:36.842Z,92.26
2022-10-27T00:51:07.249Z,92.26
2022-10-27T00:53:35.617Z,92.15
2022-10-27T00:56:04.469Z,92.19
2022-10-27T00:58:37.066Z,92.37
2022-10-27T01:01:14.977Z,92.50
2022-10-27T01:03:43.690Z,92.44
2022-10-27T01:06:14.709Z,92.53
2022-10-27T01:08:43.496Z,92.55
2022-10-27T01:11:11.653Z,92.70
2022-10-27T01:13:40.330Z,92.64
2022-10-27T01:16:24.290Z,92.59
2022-10-27T01:19:02.615Z,92.74
2022-10-27T01:21:58.213Z,92.66
2022-10-27T01:25:04.713Z,92.73
2022-10-27T01:27:53.443Z,92.76
2022-10-27T01:30:22.403Z,92.71
2022-10-27T01:32:59.757Z,92.49
2022-10-27T01:35:35.225Z,92.32
2022-10-27T01:38:11.943Z,92.38
2022-10-27T01:40:47.768Z,92.34
2022-10-27T01:43:17.119Z,92.55
2022-10-27T01:45:46.022Z,92.59
2022-10-27T01:48:16.706Z,92.69
2022-10-27T01:51:00.782Z,92.70
2022-10-27T01:53:32.055Z,92.78
2022-10-27T01:56:26.786Z,92.70
2022-10-27T01:59:24.548Z,92.53
2022-10-27T02:02:03.370Z,92.46
2022-10-27T02:04:40.886Z,92.46
2022-10-27T02:07:14.011Z,92.64
2022-10-27T02:09:46.182Z,92.84
2022-10-27T02:12:20.597Z,92.94
2022-10-27T02:14:52.082Z,92.66
2022-10-27T02:17:22.316Z,92.68
2022-10-27T02:19:55.369Z,92.87
2022-10-27T02:22:26.862Z,92.68
2022-10-27T02:24:55.419Z,92.61
2022-10-27T02:27:33.460Z,92.56
2022-10-27T02:30:03.328Z,92.59
2022-10-27T02:32:32.821Z,92.39
2022-10-27T02:35:05.174Z,92.45
2022-10-27T02:37:36.281Z,92.47
2022-10-27T02:40:05.362Z,92.31
2022-10-27T02:42:33.441Z,92.52
2022-10-27T02:45:01.554Z,92.89
2022-10-27T02:47:29.518Z,93.02
2022-10-27T02:49:57.503Z,93.09
2022-10-27T02:52:26.881Z,93.02
2022-10-27T02:54:54.979Z,92.86
2022-10-27T02:57:23.096Z,93.03
2022-10-27T02:59:53.754Z,93.24
2022-10-27T03:02:23.425Z,93.24
2022-10-27T03:04:51.956Z,93.12
2022-10-27T03:07:20.613Z,93.12
2022-10-27T03:09:50.103Z,93.08
2022-10-27T03:12:18.207Z,92.99
2022-10-27T03:14:46.319Z,92.99
2022-10-27T03:17:14.335Z,92.92
2022-10-27T03:19:42.440Z,92.83
2022-10-27T03:22:10.401Z,92.67
2022-10-27T03:24:38.485Z,92.79
2022-10-27T03:27:07.963Z,92.88
2022-10-27T03:29:36.035Z,92.95
2022-10-27T03:32:04.135Z,92.98
2022-10-27T03:34:32.292Z,92.92
2022-10-27T03:37:00.333Z,92.82
2022-10-27T03:39:28.385Z,92.59
2022-10-27T03:41:56.427Z,92.63
2022-10-27T03:44:25.883Z,92.59
2022-10-27T03:46:53.943Z,92.81
2022-10-27T03:49:22.071Z,93.02
2022-10-27T03:51:50.221Z,92.76
2022-10-27T03:54:18.304Z,92.73
2022-10-27T03:56:46.271Z,92.88
2022-10-27T03:59:14.850Z,92.84
2022-10-27T04:01:44.461Z,93.19
2022-10-27T04:04:13.170Z,93.08
2022-10-27T04:06:41.222Z,93.00
2022-10-27T04:09:09.236Z,93.11
2022-10-27T04:11:37.336Z,93.08
2022-10-27T04:14:07.338Z,93.04
2022-10-27T04:16:35.654Z,93.06
2022-10-27T04:19:05.188Z,93.13
2022-10-27T04:21:33.140Z,93.17
2022-10-27T04:24:01.117Z,93.12
2022-10-27T04:26:29.069Z,93.11
2022-10-27T04:28:57.058Z,93.32
2022-10-27T04:31:25.421Z,93.27
2022-10-27T04:33:53.342Z,93.29
2022-10-27T04:36:22.943Z,93.37
2022-10-27T04:38:51.520Z,93.14
2022-10-27T04:41:19.871Z,93.44
2022-10-27T04:46:23.506Z,93.59
2022-10-27T04:48:51.499Z,93.36
2022-10-27T04:51:22.231Z,93.43
2022-10-27T04:53:52.632Z,93.51
2022-10-27T04:56:20.649Z,93.49
2022-10-27T04:58:48.647Z,93.46
2022-10-27T05:01:16.933Z,93.36
2022-10-27T05:03:45.099Z,93.22
2022-10-27T05:06:13.270Z,93.31
2022-10-27T05:08:41.494Z,93.55
2022-10-27T05:11:16.271Z,93.51
2022-10-27T05:13:44.931Z,93.45
2022-10-27T05:16:13.060Z,93.59
2022-10-27T05:18:41.094Z,93.69
2022-10-27T05:21:09.093Z,93.79
2022-10-27T05:23:37.477Z,93.70
2022-10-27T05:26:05.626Z,93.68
2022-10-27T05:28:35.343Z,93.49
2022-10-27T05:31:03.792Z,93.55
2022-10-27T05:33:32.105Z,93.37
2022-10-27T05:36:00.435Z,92.98
2022-10-27T05:38:28.776Z,92.73
2022-10-27T05:40:57.646Z,92.70
2022-10-27T05:43:25.945Z,92.99
2022-10-27T05:45:55.523Z,93.19
2022-10-27T05:48:23.621Z,93.40
2022-10-27T05:50:54.972Z,93.68
2022-10-27T05:53:23.970Z,93.84
2022-10-27T05:55:53.940Z,93.83
2022-10-27T05:58:22.602Z,94.08
2022-10-27T06:00:50.714Z,94.21
2022-10-27T06:03:22.773Z,94.28
2022-10-27T06:05:51.287Z,94.23
2022-10-27T06:08:20.149Z,94.10
2022-10-27T06:10:48.505Z,93.54
2022-10-27T06:13:19.033Z,93.44
2022-10-27T06:15:47.286Z,93.46
2022-10-27T06:18:15.909Z,93.57
2022-10-27T06:20:46.016Z,93.85
2022-10-27T06:23:14.172Z,93.51
2022-10-27T06:25:42.486Z,93.24
2022-10-27T06:28:12.462Z,93.20
2022-10-27T06:30:40.509Z,93.54
2022-10-27T06:33:08.471Z,93.46
2022-10-27T06:35:36.894Z,93.37
2022-10-27T06:38:06.754Z,93.34
2022-10-27T06:40:36.999Z,93.30
2022-10-27T06:43:08.654Z,93.48
2022-10-27T06:45:37.388Z,93.64
2022-10-27T06:48:07.368Z,93.31
2022-10-27T06:50:36.029Z,93.26
2022-10-27T06:53:04.329Z,93.22
2022-10-27T06:55:33.847Z,93.25
2022-10-27T06:58:02.076Z,93.33
2022-10-27T07:00:30.484Z,93.48
2022-10-27T07:03:01.633Z,93.35
2022-10-27T07:05:31.897Z,93.25
2022-10-27T07:07:59.781Z,93.60
2022-10-27T07:10:27.799Z,93.95
2022-10-27T07:12:59.336Z,93.92
2022-10-27T07:15:29.210Z,93.63
2022-10-27T07:17:59.084Z,93.51
2022-10-27T07:20:29.187Z,93.36
2022-10-27T07:22:57.629Z,93.11
2022-10-27T07:25:26.082Z,93.22
2022-10-27T07:27:55.295Z,92.78
2022-10-27T07:30:27.873Z,92.87
2022-10-27T07:32:56.201Z,92.90
2022-10-27T07:35:24.925Z,92.90
2022-10-27T07:37:53.803Z,92.75
2022-10-27T07:40:27.529Z,92.32
2022-10-27T07:43:05.402Z,91.65
2022-10-27T07:45:37.954Z,91.55
2022-10-27T07:48:07.547Z,91.94
2022-10-27T07:50:35.608Z,91.81
2022-10-27T07:53:05.883Z,91.79
2022-10-27T07:55:36.706Z,92.38
2022-10-27T07:58:07.837Z,92.52
2022-10-27T08:00:41.306Z,92.55
2022-10-27T08:03:13.293Z,92.24
2022-10-27T08:05:41.431Z,92.33
2022-10-27T08:08:09.577Z,92.29
2022-10-27T08:10:40.379Z,91.96
2022-10-27T08:13:09.320Z,91.80
2022-10-27T08:15:40.431Z,91.99
2022-10-27T08:18:09.604Z,91.60
2022-10-27T08:20:40.364Z,91.20
2022-10-27T08:23:11.505Z,91.08
2022-10-27T08:25:39.680Z,91.04
2022-10-27T08:28:07.945Z,91.12
2022-10-27T08:30:40.328Z,90.71
2022-10-27T08:33:14.116Z,90.30
2022-10-27T08:35:42.569Z,90.32
2022-10-27T08:38:14.994Z,90.67
2022-10-27T08:43:42.446Z,90.40
2022-10-27T08:46:17.643Z,90.49
2022-10-27T08:48:48.026Z,90.75
2022-10-27T08:51:18.629Z,89.91
2022-10-27T08:53:50.893Z,89.91
2022-10-27T08:56:19.082Z,89.55
2022-10-27T08:58:49.127Z,89.79
2022-10-27T09:01:31.385Z,90.15
2022-10-27T09:04:14.634Z,89.35
2022-10-27T09:06:57.490Z,89.34
2022-10-27T09:09:31.759Z,89.80
2022-10-27T09:12:10.749Z,89.36
2022-10-27T09:15:12.064Z,89.57
2022-10-27T09:17:44.113Z,89.32
2022-10-27T09:20:20.826Z,89.09
2022-10-27T09:22:52.938Z,88.69
2022-10-27T09:25:22.748Z,88.56
2022-10-27T09:27:54.404Z,88.74
2022-10-27T09:30:22.752Z,89.04
2022-10-27T09:32:53.968Z,89.20
2022-10-27T09:35:26.527Z,89.75
2022-10-27T09:37:56.593Z,89.36
2022-10-27T09:40:26.118Z,89.20
2022-10-27T09:42:56.915Z,88.99
2022-10-27T09:45:27.883Z,88.90
2022-10-27T09:47:58.390Z,88.19
2022-10-27T09:50:36.731Z,87.87
2022-10-27T09:53:05.871Z,87.76
2022-10-27T09:55:50.618Z,87.40
2022-10-27T09:58:19.204Z,88.74
2022-10-27T10:00:56.560Z,88.27
2022-10-27T10:03:24.868Z,88.46
2022-10-27T10:06:02.877Z,87.54
2022-10-27T10:08:33.980Z,87.30
2022-10-27T10:11:04.210Z,88.06
2022-10-27T10:13:33.011Z,87.22
2022-10-27T10:16:11.274Z,87.50
2022-10-27T10:18:41.325Z,87.55
2022-10-27T10:21:12.565Z,87.68
2022-10-27T10:23:51.808Z,88.31
2022-10-27T10:26:21.920Z,87.82
2022-10-27T10:28:53.315Z,87.89
2022-10-27T10:31:26.080Z,87.19
2022-10-27T10:33:55.703Z,87.24
2022-10-27T10:36:30.224Z,87.67
2022-10-27T10:39:00.357Z,87.38
2022-10-27T10:41:29.282Z,87.05
2022-10-27T10:44:13.718Z,86.25
2022-10-27T10:46:50.429Z,85.71
2022-10-27T10:49:22.673Z,85.71
2022-10-27T10:51:58.563Z,85.47
2022-10-27T10:54:30.197Z,85.34
2022-10-27T10:59:31.698Z,85.50
2022-10-27T11:02:06.231Z,85.12
2022-10-27T11:04:44.474Z,84.99
2022-10-27T11:07:21.792Z,84.71
2022-10-27T11:09:58.492Z,84.43
2022-10-27T11:12:31.942Z,83.76
2022-10-27T11:15:03.043Z,83.98
2022-10-27T11:17:35.485Z,84.10
2022-10-27T11:20:06.497Z,84.72
2022-10-27T11:22:37.610Z,83.90
2022-10-27T11:25:08.552Z,83.48
2022-10-27T11:27:48.337Z,83.03
2022-10-27T11:30:23.316Z,83.10
2022-10-27T11:32:59.355Z,83.40
2022-10-27T11:35:35.014Z,82.94
2022-10-27T11:38:06.845Z,82.03
2022-10-27T11:40:44.607Z,81.69
2022-10-27T11:43:20.026Z,80.59
2022-10-27T11:45:54.655Z,81.37
2022-10-27T11:48:26.407Z,81.79
2022-10-27T11:50:57.423Z,80.70
2022-10-27T11:53:27.201Z,81.30
2022-10-27T11:56:22.879Z,80.33
2022-10-27T11:59:01.893Z,79.96
2022-10-27T12:01:44.089Z,80.02
2022-10-27T12:04:25.731Z,79.26
2022-10-27T12:07:05.531Z,80.22
2022-10-27T12:09:46.555Z,79.94
2022-10-27T12:12:19.550Z,79.29
2022-10-27T12:14:54.843Z,77.69
2022-10-27T12:17:30.115Z,78.79
2022-10-27T12:20:00.871Z,78.13
2022-10-27T12:22:35.742Z,77.91
2022-10-27T12:25:11.456Z,77.51
2022-10-27T12:27:40.906Z,77.52
2022-10-27T12:30:13.812Z,77.21
2022-10-27T12:32:46.155Z,76.18
2022-10-27T12:35:20.068Z,76.40
2022-10-27T12:37:54.567Z,76.49
2022-10-27T12:40:30.342Z,76.20
2022-10-27T12:43:02.392Z,75.69
2022-10-27T12:45:47.658Z,75.29
2022-10-27T12:48:28.245Z,75.41
2022-10-27T12:51:06.085Z,75.39
2022-10-27T12:53:43.436Z,75.89
2022-10-27T12:56:29.307Z,75.30
2022-10-27T12:59:06.226Z,74.87
2022-10-27T13:01:43.035Z,74.61
2022-10-27T13:04:35.754Z,73.93
2022-10-27T13:07:37.769Z,73.82
2022-10-27T13:10:26.180Z,73.73
2022-10-27T13:13:24.229Z,73.73
2022-10-27T13:16:01.299Z,73.93
2022-10-27T13:18:41.962Z,73.53
2022-10-27T13:21:19.265Z,74.05
2022-10-27T13:23:58.778Z,74.15
2022-10-27T13:26:38.117Z,74.43
2022-10-27T13:29:26.908Z,73.52
2022-10-27T13:32:26.899Z,73.89
2022-10-27T13:35:42.713Z,74.37
2022-10-27T13:38:25.450Z,75.01
2022-10-27T13:40:57.914Z,75.59
2022-10-27T13:43:59.173Z,75.46
2022-10-27T13:47:04.328Z,75.11
2022-10-27T13:50:03.448Z,75.75
2022-10-27T13:52:32.709Z,75.45
2022-10-27T13:55:42.854Z,76.29
2022-10-27T13:58:28.471Z,75.68
2022-10-27T14:01:27.408Z,76.02
2022-10-27T14:04:20.238Z,76.53
2022-10-27T14:06:52.240Z,76.26
2022-10-27T14:09:35.288Z,76.36
2022-10-27T14:12:15.634Z,76.78
2022-10-27T14:14:43.969Z,77.08
2022-10-27T14:17:17.792Z,77.39
2022-10-27T14:19:58.721Z,78.34
2022-10-27T14:22:34.235Z,78.27
2022-10-27T14:25:11.897Z,78.14
2022-10-27T14:27:40.258Z,79.03
2022-10-27T14:30:15.306Z,79.71
2022-10-27T14:32:43.779Z,79.94
2022-10-27T14:35:22.906Z,80.86
2022-10-27T14:37:57.280Z,81.25
2022-10-27T14:40:35.026Z,81.85
2022-10-27T14:43:03.249Z,81.87
2022-10-27T14:45:32.382Z,81.59
2022-10-27T14:48:03.299Z,81.48
2022-10-27T14:50:42.214Z,81.11
2022-10-27T14:53:27.242Z,80.99
2022-10-27T14:56:09.306Z,80.97
2022-10-27T14:58:37.539Z,81.32
2022-10-27T15:01:05.737Z,81.40
2022-10-27T15:03:35.175Z,81.25
2022-10-27T15:06:03.723Z,81.45
2022-10-27T15:08:39.303Z,82.18
2022-10-27T15:11:08.749Z,82.11
2022-10-27T15:13:43.878Z,82.56
2022-10-27T15:16:12.380Z,82.58
2022-10-27T15:18:43.263Z,82.83
2022-10-27T15:21:13.840Z,82.97
2022-10-27T15:23:44.357Z,83.08
2022-10-27T15:26:15.777Z,83.82
2022-10-27T15:28:45.060Z,84.57
2022-10-27T15:31:13.748Z,84.41
2022-10-27T15:33:43.789Z,84.39
2022-10-27T15:36:21.629Z,84.60
2022-10-27T15:38:51.348Z,84.92
2022-10-27T15:41:22.245Z,85.30
2022-10-27T15:43:51.874Z,85.05
2022-10-27T15:46:33.194Z,84.27
2022-10-27T15:49:17.345Z,84.68
2022-10-27T15:51:48.901Z,84.93
2022-10-27T15:54:27.433Z,84.58
2022-10-27T15:57:02.419Z,83.94
2022-10-27T15:59:31.945Z,83.97
2022-10-27T16:02:03.941Z,84.75
2022-10-27T16:04:34.758Z,85.29
2022-10-27T16:07:30.614Z,86.16
2022-10-27T16:10:02.027Z,86.69
2022-10-27T16:12:41.449Z,86.62
2022-10-27T16:15:20.738Z,86.61
2022-10-27T16:17:54.671Z,86.53
2022-10-27T16:20:26.018Z,86.57
2022-10-27T16:22:55.762Z,87.48
2022-10-27T16:25:29.673Z,87.50
2022-10-27T16:28:00.157Z,87.41
2022-10-27T16:30:30.645Z,87.55
2022-10-27T16:33:03.209Z,87.46
2022-10-27T16:35:31.856Z,87.12
2022-10-27T16:38:01.338Z,87.35
2022-10-27T16:40:38.131Z,87.82
2022-10-27T16:43:22.675Z,88.10
2022-10-27T16:45:52.280Z,88.10
2022-10-27T16:48:26.135Z,88.35
2022-10-27T16:50:55.343Z,88.19
2022-10-27T16:53:31.591Z,88.53
2022-10-27T16:56:07.405Z,88.08
2022-10-27T16:58:36.811Z,87.86
2022-10-27T17:01:11.046Z,87.84
2022-10-27T17:03:39.499Z,87.43
2022-10-27T17:06:09.553Z,85.87
2022-10-27T17:08:40.748Z,85.61
2022-10-27T17:11:13.727Z,84.64
2022-10-27T17:13:43.665Z,86.04
2022-10-27T17:16:14.852Z,87.20
2022-10-27T17:18:44.215Z,86.73
2022-10-27T17:21:14.741Z,87.36
2022-10-27T17:23:44.604Z,87.24
2022-10-27T17:26:15.358Z,87.49
2022-10-27T17:28:46.415Z,87.43
2022-10-27T17:31:19.468Z,87.50
2022-10-27T17:33:53.248Z,86.68
2022-10-27T17:36:21.415Z,87.97
2022-10-27T17:38:49.654Z,88.16
2022-10-27T17:41:19.467Z,88.14
2022-10-27T17:43:47.874Z,88.15
2022-10-27T17:46:18.148Z,88.71
2022-10-27T17:48:48.153Z,88.35
2022-10-27T17:51:18.277Z,88.67
2022-10-27T17:53:47.394Z,89.16
2022-10-27T17:56:19.709Z,89.71
2022-10-27T17:58:48.574Z,89.43
2022-10-27T18:01:19.079Z,89.31
2022-10-27T18:03:48.875Z,89.30
2022-10-27T18:06:21.435Z,89.61
2022-10-27T18:08:52.992Z,90.17
2022-10-27T18:11:25.392Z,90.10
2022-10-27T18:13:55.860Z,90.44
2022-10-27T18:16:28.317Z,91.85
2022-10-27T18:18:59.675Z,91.49
2022-10-27T18:21:28.173Z,90.90
2022-10-27T18:23:59.056Z,91.23
2022-10-27T18:26:30.612Z,91.12
2022-10-27T18:28:58.735Z,90.85
2022-10-27T18:31:30.075Z,90.64
2022-10-27T18:33:58.328Z,90.68
2022-10-27T18:36:27.556Z,90.63
2022-10-27T18:38:56.591Z,90.38
2022-10-27T18:41:26.077Z,90.26
2022-10-27T18:43:56.066Z,90.06
2022-10-27T18:46:25.700Z,90.13
2022-10-27T18:48:55.679Z,89.97
2022-10-27T18:51:23.812Z,90.03
2022-10-27T18:53:58.731Z,89.85
2022-10-27T18:56:27.665Z,89.91
2022-10-27T18:58:58.870Z,89.81
2022-10-27T19:01:27.925Z,90.27
2022-10-27T19:03:58.005Z,90.83
2022-10-27T19:06:27.809Z,90.67
2022-10-27T19:08:56.192Z,90.47
2022-10-27T19:11:25.716Z,90.49
2022-10-27T19:13:53.974Z,90.50
2022-10-27T19:16:25.675Z,90.59
2022-10-27T19:18:56.522Z,90.15
2022-10-27T19:21:24.675Z,90.55
2022-10-27T19:23:56.258Z,90.63
2022-10-27T19:26:26.747Z,91.00
2022-10-27T19:28:56.785Z,90.94
2022-10-27T19:31:31.075Z,91.34
2022-10-27T19:33:59.725Z,91.13
2022-10-27T19:36:29.931Z,91.01
2022-10-27T19:38:59.609Z,90.89
2022-10-27T19:41:30.072Z,90.85
2022-10-27T19:43:58.884Z,90.93
2022-10-27T19:46:30.391Z,90.95
2022-10-27T19:49:00.429Z,91.26
2022-10-27T19:51:30.433Z,91.34
2022-10-27T19:53:59.434Z,91.39
2022-10-27T19:56:31.727Z,91.23
2022-10-27T19:59:03.244Z,91.32
2022-10-27T20:01:36.240Z,91.43
2022-10-27T20:04:07.517Z,91.56
2022-10-27T20:06:36.486Z,91.51
2022-10-27T20:09:05.367Z,91.27
2022-10-27T20:11:35.312Z,90.98
2022-10-27T20:14:03.589Z,90.80
2022-10-27T20:16:35.087Z,90.86
2022-10-27T20:19:04.400Z,91.00
2022-10-27T20:21:32.440Z,90.99
2022-10-27T20:24:01.196Z,90.76
2022-10-27T20:26:30.164Z,90.78
2022-10-27T20:28:59.208Z,90.71
2022-10-27T20:31:27.720Z,90.66
2022-10-27T20:33:57.979Z,90.61
2022-10-27T20:36:26.659Z,90.60
2022-10-27T20:38:56.542Z,90.31
2022-10-27T20:41:27.590Z,90.47
2022-10-27T20:43:56.323Z,90.32
2022-10-27T20:46:25.313Z,90.45
2022-10-27T20:48:56.315Z,90.35
2022-10-27T20:51:27.786Z,90.24
2022-10-27T20:53:56.184Z,90.16
2022-10-27T20:56:27.976Z,90.10
2022-10-27T20:58:58.345Z,90.01
2022-10-27T21:01:30.184Z,90.28
2022-10-27T21:04:00.135Z,89.92
2022-10-27T21:06:31.391Z,90.05
2022-10-27T21:09:00.962Z,90.04
2022-10-27T21:11:29.613Z,89.88
2022-10-27T21:14:00.380Z,89.95
2022-10-27T21:16:29.567Z,90.03
2022-10-27T21:18:59.908Z,90.25
2022-10-27T21:21:30.923Z,90.16
2022-10-27T21:24:00.005Z,90.07
2022-10-27T21:26:28.878Z,90.08
2022-10-27T21:28:58.622Z,89.98
2022-10-27T21:31:29.328Z,89.81
2022-10-27T21:33:58.200Z,89.90
2022-10-27T21:36:26.422Z,90.24
2022-10-27T21:38:56.528Z,90.57
2022-10-27T21:41:25.592Z,90.71
2022-10-27T21:43:55.773Z,91.12
2022-10-27T21:46:26.491Z,91.08
2022-10-27T21:48:55.861Z,91.18
2022-10-27T21:51:24.784Z,91.25
2022-10-27T21:54:00.732Z,91.19
2022-10-27T21:56:31.340Z,91.33
2022-10-27T21:59:00.023Z,91.38
2022-10-27T22:01:30.077Z,91.43
2022-10-27T22:03:58.727Z,91.38
2022-10-27T22:06:29.482Z,91.54
2022-10-27T22:08:59.838Z,91.75
2022-10-27T22:11:30.345Z,91.69
2022-10-27T22:13:58.913Z,91.62
2022-10-27T22:16:29.093Z,92.16
2022-10-27T22:18:58.864Z,92.41
2022-10-27T22:21:28.415Z,92.59
2022-10-27T22:23:58.541Z,92.56
2022-10-27T22:26:27.655Z,92.65
2022-10-27T22:28:56.469Z,92.62
2022-10-27T22:31:27.825Z,92.28
2022-10-27T22:33:56.278Z,91.91
2022-10-27T22:36:25.956Z,91.81
2022-10-27T22:39:00.350Z,91.91
2022-10-27T22:41:29.201Z,91.81
2022-10-27T22:43:57.926Z,92.00
2022-10-27T22:46:28.662Z,91.90
2022-10-27T22:48:57.253Z,91.82
2022-10-27T22:51:27.122Z,91.97
2022-10-27T22:53:56.955Z,91.86
2022-10-27T22:56:28.130Z,91.96
2022-10-27T22:58:58.677Z,91.96
2022-10-27T23:01:28.301Z,91.93
2022-10-27T23:03:57.867Z,91.86
2022-10-27T23:06:27.354Z,91.82
2022-10-27T23:08:57.603Z,91.61
2022-10-27T23:11:30.929Z,91.66
2022-10-27T23:13:59.122Z,91.67
2022-10-27T23:16:29.062Z,91.67
2022-10-27T23:18:58.210Z,91.60
2022-10-27T23:21:27.187Z,91.33
2022-10-27T23:23:57.131Z,91.47
2022-10-27T23:26:28.931Z,91.52
2022-10-27T23:28:58.547Z,91.37
2022-10-27T23:31:28.056Z,91.39
2022-10-27T23:33:57.840Z,91.40
2022-10-27T23:36:27.270Z,91.63
2022-10-27T23:38:55.462Z,91.59
2022-10-27T23:41:24.005Z,91.82
2022-10-27T23:43:55.228Z,91.85
2022-10-27T23:46:24.352Z,91.92
2022-10-27T23:48:53.064Z,91.98
2022-10-27T23:51:21.884Z,91.71
2022-10-27T23:53:50.483Z,91.75
2022-10-27T23:56:18.734Z,91.48
2022-10-27T23:58:47.104Z,91.64
